Time;durP1;ratioP1;P1;durP2;ratioP2;P2;SDS_P1;SDS_P2;PMS_P1;PMS_P2;Temp;Humidity;BMP_temperature;BMP_pressure;BME280_temperature;BME280_humidity;BME280_pressure;Samples;Min_cycle;Max_cycle;Signal;HPM_P1;HPM_P2
2024/04/21 07:07:25;;;;;;;13.43;2.78;;;;;;;2.72;97.94;96628.66;2243937;25;20578;-64
2024/04/21 07:29:52;;;;;;;12.18;3.67;;;;;;;2.33;99.88;96624.88;2237095;25;20572;-65
2024/04/21 07:30:54;;;;;;;13.30;3.35;;;;;;;2.41;97.18;96626.50;2218017;26;20768;-65
2024/04/21 07:31:56;;;;;;;15.35;3.00;;;;;;;2.76;97.26;96622.56;2221714;26;20216;-65
2024/04/21 07:32:57;;;;;;;9.63;2.45;;;;;;;3.14;96.23;96619.47;2223401;26;20358;-65
2024/04/21 07:33:59;;;;;;;16.13;3.40;;;;;;;3.51;94.58;96624.88;2222044;26;20269;-65
2024/04/21 07:35:00;;;;;;;12.45;2.58;;;;;;;3.79;93.74;96624.38;2207846;26;20821;-66
2024/04/21 07:36:03;;;;;;;15.57;3.50;;;;;;;4.21;92.79;96627.03;2217140;26;20268;-66
2024/04/21 07:37:04;;;;;;;11.93;2.40;;;;;;;4.17;91.67;96629.72;2217892;26;20715;-66
2024/04/21 07:38:06;;;;;;;15.43;3.78;;;;;;;4.13;90.70;96622.91;2220217;26;20265;-66
2024/04/21 07:39:08;;;;;;;11.48;3.10;;;;;;;4.13;90.01;96628.94;2223915;26;20254;-65
2024/04/21 07:40:09;;;;;;;14.68;3.30;;;;;;;4.10;88.35;96618.63;2218177;26;20587;-66
2024/04/21 07:42:04;;;;;;;17.27;2.88;;;;;;;3.87;88.38;96622.53;2224393;26;20618;-64
2024/04/21 07:43:06;;;;;;;11.82;3.00;;;;;;;4.01;89.09;96623.97;2220847;26;20227;-64
2024/04/21 07:44:07;;;;;;;8.68;2.10;;;;;;;4.18;88.76;96626.25;2218852;26;20321;-64
2024/04/21 07:53:37;;;;;;;19.23;3.95;;;;;;;3.60;90.73;96629.88;2253734;25;20609;-64
2024/04/21 07:55:37;;;;;;;6.97;2.35;;;;;;;3.44;90.65;96620.69;2223157;26;20635;-64
2024/04/21 07:57:37;;;;;;;7.82;2.47;;;;;;;3.49;89.01;96628.34;2270419;25;20555;-64
2024/04/21 07:59:35;;;;;;;6.50;1.88;;;;;;;3.72;88.45;96628.81;2235219;26;20632;-65
2024/04/21 08:00:39;;;;;;;22.17;2.30;;;;;;;3.68;87.42;96626.31;2218877;26;20208;-66
2024/04/21 08:01:41;;;;;;;17.05;2.28;;;;;;;3.76;87.98;96625.28;2221859;26;20211;-66
2024/04/21 08:02:43;;;;;;;13.23;2.28;;;;;;;4.11;88.08;96624.66;2222558;26;20321;-66
2024/04/21 08:03:44;;;;;;;11.70;2.22;;;;;;;4.08;85.15;96623.84;2222973;26;20218;-66
2024/04/21 08:04:46;;;;;;;7.07;1.50;;;;;;;3.94;85.79;96620.69;2224750;26;20228;-66
2024/04/21 08:05:48;;;;;;;13.40;2.10;;;;;;;4.31;84.03;96629.44;2215784;26;20215;-66
2024/04/21 08:06:49;;;;;;;8.98;2.20;;;;;;;4.81;83.45;96630.13;2206625;26;20221;-66
2024/04/21 08:07:51;;;;;;;13.52;1.60;;;;;;;4.87;83.42;96629.97;2205925;26;20216;-66
2024/04/21 08:08:53;;;;;;;9.13;2.00;;;;;;;4.65;82.57;96632.19;2220966;26;20261;-66
2024/04/21 08:10:07;;;;;;;14.30;2.22;;;;;;;4.82;82.22;96626.63;2220799;26;20364;-64
2024/04/21 08:11:09;;;;;;;5.82;1.40;;;;;;;5.39;82.15;96630.50;2220168;26;20266;-64
2024/04/21 08:12:11;;;;;;;7.47;1.85;;;;;;;5.71;80.49;96634.03;2224328;26;20212;-66
2024/04/21 08:13:12;;;;;;;11.90;1.70;;;;;;;5.77;79.34;96624.41;2224394;26;20258;-64
2024/04/21 08:14:14;;;;;;;7.90;1.40;;;;;;;5.68;79.64;96631.50;2221121;26;20235;-64
2024/04/21 08:15:16;;;;;;;9.70;1.70;;;;;;;5.66;78.04;96619.50;2209662;26;20717;-64
2024/04/21 08:16:17;;;;;;;7.35;1.45;;;;;;;5.46;77.04;96630.34;2224973;26;20218;-64
2024/04/21 08:17:19;;;;;;;12.38;1.63;;;;;;;5.36;78.96;96627.16;2215824;26;20682;-64
2024/04/21 08:18:20;;;;;;;12.15;1.90;;;;;;;5.52;80.20;96627.59;2207188;26;20311;-64
2024/04/21 08:19:22;;;;;;;8.05;1.45;;;;;;;5.16;79.89;96631.03;2206069;26;20221;-64
2024/04/21 08:20:24;;;;;;;7.07;1.42;;;;;;;5.32;80.86;96622.91;2222939;26;20689;-63
2024/04/21 08:21:25;;;;;;;10.68;1.70;;;;;;;5.34;80.52;96634.94;2222931;26;20261;-63
2024/04/21 08:22:27;;;;;;;8.95;1.60;;;;;;;5.10;79.62;96633.78;2221837;26;20220;-64
2024/04/21 08:23:30;;;;;;;5.47;1.33;;;;;;;5.12;80.27;96634.59;2221105;26;20231;-64
2024/04/21 08:24:32;;;;;;;8.57;1.83;;;;;;;4.82;79.83;96643.91;2216100;26;20216;-64
2024/04/21 08:25:33;;;;;;;8.48;1.83;;;;;;;4.76;81.52;96644.88;2217026;26;20278;-64
2024/04/21 08:28:09;;;;;;;6.32;1.73;;;;;;;4.58;83.83;96648.72;2224037;26;20621;-64
2024/04/21 08:30:36;;;;;;;10.82;1.52;;;;;;;4.10;83.16;96652.22;2240873;26;20574;-65
2024/04/21 08:31:38;;;;;;;13.75;1.67;;;;;;;4.49;83.36;96652.34;2227932;26;20909;-66
2024/04/21 08:32:39;;;;;;;11.27;2.15;;;;;;;4.50;83.48;96640.28;2225477;26;20226;-66
2024/04/21 08:33:42;;;;;;;5.93;1.92;;;;;;;4.50;81.89;96651.47;2222195;26;20227;-66
2024/04/21 08:34:44;;;;;;;11.98;2.00;;;;;;;4.71;81.97;96649.28;2214620;26;20785;-64
2024/04/21 08:35:56;;;;;;;12.70;2.50;;;;;;;4.86;82.53;96649.00;2204368;26;20224;-66
2024/04/21 08:36:58;;;;;;;4.05;1.45;;;;;;;4.43;82.55;96647.28;2218205;26;20217;-66
2024/04/21 08:37:59;;;;;;;6.70;1.67;;;;;;;4.30;82.65;96651.00;2224944;26;20235;-66
2024/04/21 08:39:01;;;;;;;8.70;1.90;;;;;;;4.31;84.72;96650.97;2209045;26;20257;-66
2024/04/21 08:40:04;;;;;;;13.75;2.42;;;;;;;4.41;84.71;96654.25;2207844;26;20255;-65
2024/04/21 09:09:36;;;;;;;11.77;2.58;;;;;;;3.48;86.35;96650.75;2250683;25;20625;-65
2024/04/21 09:10:38;;;;;;;6.47;1.92;;;;;;;4.01;86.00;96650.69;2243894;26;20256;-67
2024/04/21 09:11:39;;;;;;;7.85;2.00;;;;;;;4.80;82.06;96648.25;2244993;26;20217;-67
2024/04/21 09:12:42;;;;;;;13.27;1.90;;;;;;;5.81;81.82;96646.75;2244943;26;21052;-67
2024/04/21 09:13:44;;;;;;;10.82;1.75;;;;;;;5.83;80.98;96642.41;2244991;26;20252;-67
2024/04/21 09:14:45;;;;;;;12.32;2.08;;;;;;;5.78;79.11;96641.66;2244563;26;20210;-67
2024/04/21 09:15:47;;;;;;;9.63;2.15;;;;;;;6.12;80.90;96638.19;2245032;26;20217;-67
2024/04/21 09:16:49;;;;;;;14.10;2.53;;;;;;;7.06;80.00;96638.09;2244652;26;20214;-67
2024/04/21 09:17:51;;;;;;;13.00;2.83;;;;;;;7.40;78.05;96639.63;2245297;26;20222;-67
2024/04/21 09:18:52;;;;;;;9.77;2.05;;;;;;;7.26;77.32;96634.91;2245141;26;20218;-67
2024/04/21 09:19:54;;;;;;;12.80;2.35;;;;;;;7.30;78.39;96638.22;2244676;26;20253;-67
2024/04/21 09:20:56;;;;;;;10.90;2.10;;;;;;;7.56;78.50;96629.59;2244992;26;20781;-67
2024/04/21 09:21:58;;;;;;;10.63;1.75;;;;;;;6.91;76.23;96638.53;2244570;26;20419;-68
2024/04/21 09:23:00;;;;;;;8.40;2.30;;;;;;;5.96;77.41;96640.34;2245190;26;20218;-67
2024/04/21 09:24:01;;;;;;;12.65;2.05;;;;;;;6.46;77.81;96650.22;2244693;26;20265;-67
2024/04/21 09:25:06;;;;;;;11.23;1.92;;;;;;;6.30;76.65;96644.66;2241683;26;20250;-68
2024/04/21 09:43:47;;;;;;;15.40;2.90;;;;;;;4.36;84.46;96654.31;2223495;26;20641;-65
2024/04/21 09:45:53;;;;;;;10.15;2.95;;;;;;;4.32;85.71;96655.28;2220273;26;20634;-65
2024/04/21 10:00:08;;;;;;;14.07;2.30;;;;;;;3.97;87.70;96667.13;2251919;25;20628;-64
2024/04/21 10:02:22;;;;;;;13.13;2.42;;;;;;;4.16;87.65;96656.44;2223939;26;20574;-64
2024/04/21 10:04:21;;;;;;;12.00;3.25;;;;;;;4.39;85.07;96653.41;2247811;26;20561;-64
2024/04/21 10:05:27;;;;;;;11.02;2.50;;;;;;;4.43;84.59;96651.63;2224133;26;20344;-64
2024/04/21 10:06:30;;;;;;;15.15;2.80;;;;;;;4.66;84.93;96654.59;2220269;26;20216;-65
2024/04/21 10:07:38;;;;;;;10.25;2.17;;;;;;;4.84;84.74;96652.50;2219855;26;20258;-65
2024/04/21 10:08:40;;;;;;;13.50;3.20;;;;;;;5.49;83.19;96653.59;2221588;26;20654;-65
2024/04/21 10:09:42;;;;;;;10.20;1.92;;;;;;;6.00;82.56;96653.19;2219017;26;20244;-65
2024/04/21 10:10:49;;;;;;;10.77;1.95;;;;;;;6.37;78.00;96649.63;2204407;26;20255;-65
2024/04/21 10:11:51;;;;;;;10.68;2.45;;;;;;;7.10;80.88;96642.31;2208585;26;20224;-64
2024/04/21 10:12:55;;;;;;;7.53;2.42;;;;;;;7.13;79.77;96644.78;2207902;26;20521;-64
2024/04/21 10:13:59;;;;;;;10.93;2.30;;;;;;;7.33;78.83;96644.16;2207709;26;20224;-65
2024/04/21 10:15:02;;;;;;;8.68;1.65;;;;;;;7.14;76.39;96640.47;2206251;26;20731;-65
2024/04/21 10:16:05;;;;;;;7.85;1.98;;;;;;;7.23;77.82;96647.97;2204819;26;20578;-66
2024/04/21 10:17:06;;;;;;;15.15;2.40;;;;;;;7.63;77.02;96646.69;2204014;26;20540;-66
2024/04/21 10:18:08;;;;;;;10.30;1.98;;;;;;;7.37;75.03;96639.72;2209506;26;20260;-63
2024/04/21 10:19:10;;;;;;;11.45;2.22;;;;;;;7.38;77.08;96643.16;2205229;26;20221;-63
2024/04/21 10:20:12;;;;;;;9.63;1.65;;;;;;;7.67;77.33;96645.69;2206584;26;20274;-64
2024/04/21 10:21:14;;;;;;;8.75;2.00;;;;;;;7.45;74.65;96645.53;2210562;26;20223;-64
2024/04/21 10:22:16;;;;;;;10.23;2.42;;;;;;;7.72;74.13;96645.53;2205201;26;20262;-63
2024/04/21 10:23:19;;;;;;;9.73;1.67;;;;;;;7.09;71.63;96635.41;2204562;26;20599;-63
2024/04/21 10:24:20;;;;;;;8.73;2.20;;;;;;;7.04;72.97;96642.47;2206617;26;20522;-63
2024/04/21 10:25:22;;;;;;;7.95;1.75;;;;;;;7.87;71.95;96636.34;2207798;26;20255;-63
2024/04/21 10:26:24;;;;;;;6.07;1.92;;;;;;;8.27;74.34;96632.38;2222314;26;20723;-63
2024/04/21 10:27:25;;;;;;;11.40;1.92;;;;;;;8.88;72.88;96625.84;2218920;26;20212;-63
2024/04/21 10:28:29;;;;;;;5.30;1.80;;;;;;;9.09;69.34;96629.38;2207141;26;20812;-63
2024/04/21 10:29:31;;;;;;;6.57;1.35;;;;;;;9.41;70.09;96629.84;2207580;26;20224;-65
2024/04/21 10:30:33;;;;;;;6.45;1.88;;;;;;;8.73;70.09;96627.25;2207440;26;20256;-66
2024/04/21 10:31:35;;;;;;;13.23;2.08;;;;;;;8.70;69.30;96627.38;2219977;26;20257;-65
2024/04/21 10:32:37;;;;;;;5.15;1.27;;;;;;;8.99;69.14;96630.66;2220409;26;20274;-65
2024/04/21 10:33:40;;;;;;;8.18;3.25;;;;;;;9.34;67.61;96625.78;2204944;26;20212;-64
2024/04/21 10:34:46;;;;;;;14.15;3.10;;;;;;;8.72;68.97;96622.13;2203038;26;20808;-65
2024/04/21 10:35:51;;;;;;;14.23;4.88;;;;;;;8.14;69.28;96618.13;2203977;26;20213;-63
2024/04/21 10:36:52;;;;;;;33.83;9.68;;;;;;;8.03;70.67;96620.25;2207698;26;20288;-63
2024/04/21 10:37:57;;;;;;;4.60;1.38;;;;;;;7.94;69.09;96634.41;2204538;26;20213;-63
2024/04/21 10:38:59;;;;;;;10.55;1.73;;;;;;;7.58;69.37;96621.72;2204866;26;20861;-63
2024/04/21 10:40:05;;;;;;;5.57;1.25;;;;;;;7.47;70.58;96622.09;2203632;26;20249;-63
2024/04/21 10:41:07;;;;;;;8.10;1.35;;;;;;;7.38;69.72;96627.56;2204999;26;20220;-63
2024/04/21 10:42:10;;;;;;;8.43;1.48;;;;;;;7.30;72.23;96625.22;2206246;26;20290;-63
2024/04/21 10:43:14;;;;;;;4.32;1.45;;;;;;;7.35;69.93;96633.72;2208401;26;20217;-63
2024/04/21 10:44:15;;;;;;;4.05;1.55;;;;;;;7.32;68.59;96626.88;2206769;26;20243;-63
2024/04/21 10:45:17;;;;;;;7.65;1.20;;;;;;;7.27;67.57;96620.97;2209299;26;20290;-63
2024/04/21 10:46:19;;;;;;;5.72;1.40;;;;;;;7.45;67.91;96623.88;2207867;26;20216;-64
2024/04/21 10:47:20;;;;;;;8.68;1.38;;;;;;;7.92;66.24;96618.00;2207288;26;20255;-63
2024/04/21 10:48:23;;;;;;;5.88;1.42;;;;;;;8.39;67.60;96622.44;2208944;26;20221;-63
2024/04/21 10:49:24;;;;;;;6.00;1.20;;;;;;;8.44;71.06;96621.38;2206708;26;20217;-65
2024/04/21 10:50:26;;;;;;;4.03;1.40;;;;;;;8.54;70.62;96621.06;2208606;26;20253;-65
2024/04/21 10:51:29;;;;;;;5.93;1.25;;;;;;;8.21;69.15;96635.19;2209501;26;20594;-65
2024/04/21 10:52:30;;;;;;;10.40;2.00;;;;;;;7.66;70.49;96632.75;2206804;26;20266;-65
2024/04/21 10:53:32;;;;;;;4.57;1.20;;;;;;;7.60;72.70;96628.59;2206702;26;20221;-65
2024/04/21 10:54:35;;;;;;;7.65;1.92;;;;;;;7.48;74.24;96627.25;2207595;26;20644;-65
2024/04/21 10:55:36;;;;;;;8.18;2.65;;;;;;;7.18;73.90;96616.94;2205883;26;20245;-65
2024/04/21 10:56:38;;;;;;;11.23;2.25;;;;;;;6.75;74.65;96625.19;2204907;26;20327;-65
2024/04/21 10:57:41;;;;;;;12.93;2.45;;;;;;;6.99;75.95;96628.78;2205635;26;20795;-65
2024/04/21 10:58:48;;;;;;;7.05;1.58;;;;;;;6.46;75.95;96630.34;2206312;26;20280;-66
2024/04/21 10:59:49;;;;;;;12.90;1.95;;;;;;;6.28;77.06;96629.09;2208238;26;20255;-65
2024/04/21 11:00:51;;;;;;;5.97;1.45;;;;;;;6.00;74.84;96621.22;2207840;26;20305;-65
2024/04/21 11:01:52;;;;;;;14.75;2.20;;;;;;;7.24;74.05;96623.69;2209381;26;20673;-65
2024/04/21 11:02:56;;;;;;;3.47;1.10;;;;;;;7.44;67.22;96617.84;2211178;26;20211;-65
2024/04/21 11:04:00;;;;;;;9.30;2.03;;;;;;;7.63;69.70;96617.22;2212888;26;20232;-65
2024/04/21 11:05:04;;;;;;;10.05;2.45;;;;;;;7.71;71.08;96607.44;2213816;26;20252;-65
2024/04/21 11:06:08;;;;;;;61.30;21.30;;;;;;;7.32;71.62;96620.84;2216522;26;20209;-65
2024/04/21 11:07:10;;;;;;;50.30;17.77;;;;;;;7.44;71.05;96622.19;2204687;26;20561;-65
2024/04/21 11:08:12;;;;;;;84.28;27.23;;;;;;;7.38;72.44;96623.25;2208386;26;20212;-65
2024/04/21 11:09:14;;;;;;;67.55;24.45;;;;;;;7.25;73.60;96625.41;2205349;26;20274;-65
2024/04/21 11:10:15;;;;;;;68.65;20.65;;;;;;;7.13;73.60;96621.41;2218965;26;20289;-65
2024/04/21 11:11:17;;;;;;;187.95;59.00;;;;;;;7.15;71.74;96624.81;2219691;26;20756;-65
2024/04/21 11:12:19;;;;;;;46.13;15.90;;;;;;;6.74;70.67;96626.91;2219684;26;20208;-66
2024/04/21 11:13:21;;;;;;;14.02;4.40;;;;;;;7.43;64.62;96618.75;2222363;26;20227;-64
2024/04/21 11:14:25;;;;;;;6.78;2.03;;;;;;;8.41;65.70;96618.88;2223212;26;20219;-65
2024/04/21 11:15:27;;;;;;;5.22;1.60;;;;;;;9.35;63.51;96622.28;2205013;26;20258;-65
2024/04/21 11:16:30;;;;;;;7.70;4.00;;;;;;;8.81;63.99;96617.41;2200963;26;20546;-65
2024/04/21 11:17:32;;;;;;;8.00;1.98;;;;;;;9.54;67.17;96625.00;2200591;26;20829;-65
2024/04/21 11:18:34;;;;;;;6.43;2.00;;;;;;;9.30;66.33;96619.00;2202254;26;20653;-65
2024/04/21 11:19:36;;;;;;;7.10;2.08;;;;;;;8.51;69.38;96629.81;2201934;26;20761;-65
2024/04/21 11:20:37;;;;;;;7.53;4.10;;;;;;;8.24;68.93;96629.03;2199394;26;20253;-65
2024/04/21 11:21:39;;;;;;;5.32;1.45;;;;;;;7.73;69.44;96629.00;2201105;26;20224;-65
2024/04/21 11:22:41;;;;;;;5.30;1.80;;;;;;;7.78;68.82;96626.28;2199908;26;20287;-65
2024/04/21 11:23:44;;;;;;;6.10;1.30;;;;;;;7.45;69.48;96626.50;2200938;26;20222;-64
2024/04/21 11:24:46;;;;;;;4.22;1.48;;;;;;;7.32;70.72;96633.84;2197535;26;20350;-64
2024/04/21 11:25:49;;;;;;;3.92;1.10;;;;;;;7.58;70.84;96629.53;2198381;26;20221;-65
2024/04/21 11:26:58;;;;;;;6.88;1.40;;;;;;;7.64;69.73;96637.13;2204191;26;20255;-65
2024/04/21 11:28:08;;;;;;;3.05;1.10;;;;;;;7.62;69.00;96626.78;2200962;26;20263;-65
2024/04/21 11:29:10;;;;;;;6.05;1.20;;;;;;;7.48;69.86;96629.00;2201252;26;20910;-65
2024/04/21 11:30:11;;;;;;;7.15;1.25;;;;;;;7.54;70.92;96636.56;2198532;26;20257;-65
2024/04/21 11:31:13;;;;;;;6.03;1.80;;;;;;;7.64;69.30;96631.94;2197202;26;20216;-64
2024/04/21 11:32:15;;;;;;;3.72;0.90;;;;;;;7.67;69.33;96637.88;2197276;26;20791;-65
2024/04/21 11:33:16;;;;;;;6.90;1.48;;;;;;;7.76;69.25;96639.31;2199098;26;20220;-65
2024/04/21 11:34:18;;;;;;;7.00;1.10;;;;;;;7.41;68.33;96638.72;2200003;26;20264;-65
2024/04/21 11:35:20;;;;;;;3.40;1.15;;;;;;;7.05;68.24;96633.81;2200513;26;20257;-65
2024/04/21 11:36:22;;;;;;;5.63;1.50;;;;;;;7.47;67.46;96635.09;2202177;26;20259;-65
2024/04/21 11:37:24;;;;;;;4.55;1.40;;;;;;;7.30;67.41;96639.09;2204661;26;20263;-65
2024/04/21 11:38:26;;;;;;;4.45;1.45;;;;;;;7.08;68.30;96632.84;2201336;26;20217;-65
2024/04/21 11:39:27;;;;;;;7.97;1.40;;;;;;;7.07;69.52;96626.78;2202398;26;20214;-65
2024/04/21 11:40:29;;;;;;;5.80;1.20;;;;;;;7.16;67.24;96628.25;2198832;26;20809;-65
2024/04/21 11:41:31;;;;;;;8.15;1.50;;;;;;;7.34;67.89;96630.28;2201454;26;20228;-65
2024/04/21 11:42:32;;;;;;;3.42;0.90;;;;;;;7.38;66.88;96624.97;2201065;26;20218;-65
2024/04/21 11:43:37;;;;;;;5.47;1.08;;;;;;;7.18;65.58;96621.28;2198877;26;20218;-65
2024/04/21 11:44:41;;;;;;;3.42;0.93;;;;;;;6.95;66.34;96624.59;2200407;26;20223;-66
2024/04/21 11:45:43;;;;;;;6.53;1.38;;;;;;;7.35;65.95;96626.78;2200181;26;20225;-65
2024/04/21 11:46:44;;;;;;;4.28;1.20;;;;;;;8.65;65.38;96621.50;2202324;26;20748;-65
2024/04/21 11:47:53;;;;;;;3.88;1.38;;;;;;;9.78;63.40;96617.06;2197187;26;20997;-67
2024/04/21 11:48:55;;;;;;;6.60;1.20;;;;;;;10.62;59.61;96620.41;2197013;26;20228;-67
2024/04/21 11:49:57;;;;;;;8.02;1.45;;;;;;;11.11;60.03;96619.91;2190854;26;20264;-67
2024/04/21 11:50:59;;;;;;;5.03;1.10;;;;;;;11.57;57.05;96614.22;2201278;26;20260;-67
2024/04/21 11:52:01;;;;;;;7.32;1.40;;;;;;;11.75;56.45;96611.63;2197270;26;20277;-67
2024/04/21 11:53:04;;;;;;;8.50;1.20;;;;;;;11.47;57.84;96607.75;2196748;26;20221;-68
2024/04/21 11:54:07;;;;;;;8.27;1.60;;;;;;;11.48;57.75;96609.44;2205587;26;20827;-67
2024/04/21 11:55:08;;;;;;;7.85;1.33;;;;;;;10.64;54.88;96609.03;2197604;26;20253;-67
2024/04/21 11:56:10;;;;;;;7.20;1.05;;;;;;;11.73;56.71;96611.72;2200141;26;20221;-67
2024/04/21 11:57:11;;;;;;;6.65;1.40;;;;;;;12.06;56.72;96604.84;2201724;26;20252;-67
2024/04/21 11:58:13;;;;;;;9.75;1.90;;;;;;;12.44;55.85;96607.25;2201061;26;20217;-67
2024/04/21 11:59:14;;;;;;;5.93;1.67;;;;;;;11.90;55.21;96608.22;2197959;26;20225;-68
2024/04/21 12:00:16;;;;;;;6.28;1.77;;;;;;;11.37;58.29;96617.81;2200166;26;20253;-67
2024/04/21 12:01:18;;;;;;;6.30;0.98;;;;;;;10.71;57.60;96610.47;2201335;26;20211;-68
2024/04/21 12:02:26;;;;;;;8.15;1.60;;;;;;;10.71;57.99;96613.91;2199830;26;20226;-68
2024/04/21 12:03:28;;;;;;;10.07;1.30;;;;;;;9.52;61.07;96618.16;2201078;26;20331;-68
2024/04/21 12:04:29;;;;;;;3.50;1.13;;;;;;;9.56;63.26;96619.72;2216587;26;20293;-68
2024/04/21 12:05:31;;;;;;;3.88;1.27;;;;;;;8.33;63.57;96624.34;2210913;26;21017;-65
2024/04/21 12:06:32;;;;;;;7.32;1.30;;;;;;;8.52;65.12;96628.94;2199703;26;20220;-66
2024/04/21 12:07:34;;;;;;;4.13;1.20;;;;;;;8.12;65.03;96644.16;2199587;26;20650;-66
2024/04/21 12:08:35;;;;;;;7.05;1.50;;;;;;;7.84;66.60;96639.06;2200982;26;20607;-67
2024/04/21 12:09:37;;;;;;;5.47;1.55;;;;;;;7.49;65.14;96638.47;2197644;26;20280;-67
2024/04/21 12:10:39;;;;;;;5.00;1.15;;;;;;;7.31;67.28;96639.91;2203222;26;20299;-67
2024/04/21 12:11:41;;;;;;;6.72;1.10;;;;;;;7.24;68.58;96639.28;2203319;26;20321;-67
2024/04/21 12:12:43;;;;;;;7.13;1.23;;;;;;;7.21;67.42;96638.50;2199341;26;20314;-67
2024/04/21 12:13:44;;;;;;;3.60;1.08;;;;;;;6.98;67.53;96642.66;2199682;26;20221;-67
2024/04/21 12:14:46;;;;;;;10.68;1.33;;;;;;;6.99;69.26;96645.22;2200374;26;20263;-67
2024/04/21 12:15:47;;;;;;;9.65;1.17;;;;;;;7.25;69.61;96635.78;2198413;26;20655;-67
2024/04/21 12:19:00;;;;;;;3.85;1.23;;;;;;;7.35;68.32;96629.41;2254542;25;20691;-67
2024/04/21 12:20:02;;;;;;;6.93;1.50;;;;;;;7.14;67.05;96637.88;2240819;26;20659;-66
2024/04/21 12:21:04;;;;;;;3.17;1.25;;;;;;;6.77;67.72;96631.19;2222183;26;20242;-67
2024/04/21 12:22:05;;;;;;;11.45;3.58;;;;;;;6.49;69.26;96629.41;2222903;26;20215;-68
2024/04/21 12:24:49;;;;;;;6.35;1.60;;;;;;;6.25;71.20;96630.91;2249887;25;20610;-65
2024/04/21 12:25:51;;;;;;;6.78;1.50;;;;;;;6.42;72.26;96633.91;2235108;26;20616;-66
2024/04/21 12:26:52;;;;;;;6.40;1.10;;;;;;;5.89;69.98;96626.66;2240648;26;20213;-67
2024/04/21 12:29:11;;;;;;;7.22;1.40;;;;;;;6.27;71.40;96634.34;2220230;26;20627;-67
2024/04/21 12:30:12;;;;;;;4.90;1.50;;;;;;;6.60;72.06;96634.28;2209529;26;20277;-67
2024/04/21 12:31:14;;;;;;;7.45;1.77;;;;;;;6.60;71.04;96629.97;2199973;26;20221;-67
2024/04/21 12:32:16;;;;;;;4.80;2.15;;;;;;;6.99;71.95;96634.81;2198244;27;20273;-67
2024/04/21 12:33:17;;;;;;;8.10;1.70;;;;;;;7.10;71.90;96633.66;2197233;27;20209;-68
2024/04/21 12:34:19;;;;;;;10.90;1.60;;;;;;;6.68;71.56;96630.56;2199293;26;20742;-68
2024/04/21 12:36:24;;;;;;;6.28;1.42;;;;;;;6.78;70.44;96628.56;2268774;25;20570;-67
2024/04/21 12:37:26;;;;;;;6.18;1.50;;;;;;;6.70;68.56;96633.09;2265549;25;20222;-67
2024/04/21 12:38:27;;;;;;;3.95;1.38;;;;;;;6.82;69.54;96626.72;2273556;26;20212;-67
2024/04/21 12:39:29;;;;;;;7.78;1.70;;;;;;;6.68;68.02;96629.72;2274392;26;20220;-67
2024/04/21 12:40:30;;;;;;;3.88;1.10;;;;;;;7.13;70.39;96625.78;2231076;25;20254;-67
2024/04/21 12:41:33;;;;;;;6.43;1.35;;;;;;;7.12;70.59;96624.06;2223379;26;20261;-67
2024/04/21 12:42:35;;;;;;;5.97;1.50;;;;;;;7.18;70.55;96631.66;2226123;26;20218;-67
2024/04/21 12:43:36;;;;;;;4.90;1.40;;;;;;;7.15;69.50;96624.00;2225147;26;20219;-67
2024/04/21 12:44:38;;;;;;;8.38;1.52;;;;;;;7.31;70.02;96621.75;2224998;26;20212;-67
2024/04/21 12:45:39;;;;;;;4.07;1.77;;;;;;;7.13;67.84;96629.22;2225130;26;20274;-67
2024/04/21 12:46:41;;;;;;;8.55;1.83;;;;;;;6.41;68.03;96623.56;2225268;26;20268;-67
2024/04/21 12:47:42;;;;;;;6.03;1.80;;;;;;;6.50;70.03;96631.09;2227479;26;20671;-67
2024/04/21 12:48:44;;;;;;;4.43;1.27;;;;;;;6.51;69.93;96625.00;2222701;26;20219;-68
2024/04/21 12:49:45;;;;;;;8.88;1.65;;;;;;;6.95;69.81;96633.22;2220756;26;20252;-67
2024/04/21 13:00:28;;;;;;;12.25;4.15;;;;;;;6.83;69.94;96625.81;2217051;26;21104;-67
2024/04/21 13:02:35;;;;;;;9.68;4.18;;;;;;;6.52;71.23;96626.72;2240976;26;20979;-67
2024/04/21 13:11:26;;;;;;;6.45;1.45;;;;;;;6.73;68.87;96626.97;2253400;25;20568;-65
2024/04/21 13:13:38;;;;;;;8.18;1.30;;;;;;;6.67;69.89;96625.44;2255701;25;21106;-66
2024/04/21 13:15:48;;;;;;;4.88;1.33;;;;;;;6.79;66.96;96630.25;2251528;25;20821;-66
2024/04/21 13:17:55;;;;;;;6.38;1.90;;;;;;;6.83;67.11;96623.22;2227018;26;20961;-63
2024/04/21 13:18:57;;;;;;;9.20;2.00;;;;;;;7.00;67.71;96628.75;2217812;26;20278;-67
2024/04/21 13:19:59;;;;;;;6.55;1.20;;;;;;;7.42;66.38;96622.25;2217850;26;20271;-66
2024/04/21 13:21:01;;;;;;;7.90;1.60;;;;;;;7.88;63.00;96621.63;2215362;26;20639;-67
2024/04/21 13:22:02;;;;;;;6.10;1.30;;;;;;;7.85;60.90;96625.16;2210338;26;20263;-67
2024/04/21 13:23:04;;;;;;;4.05;1.00;;;;;;;8.35;62.67;96626.88;2209592;26;20259;-67
2024/04/21 13:24:06;;;;;;;4.05;1.52;;;;;;;8.38;64.25;96624.19;2224742;26;20242;-67
2024/04/21 13:25:08;;;;;;;3.35;1.80;;;;;;;8.13;65.99;96634.63;2214124;26;20305;-67
2024/04/21 13:26:10;;;;;;;5.82;1.50;;;;;;;7.97;66.59;96629.09;2205571;26;20223;-67
2024/04/21 13:27:13;;;;;;;5.45;1.38;;;;;;;7.65;65.36;96639.66;2202601;26;20220;-67
2024/04/21 13:29:37;;;;;;;7.53;1.23;;;;;;;7.46;66.19;96644.63;2242101;26;20579;-68
2024/04/21 13:32:02;;;;;;;2.22;1.05;;;;;;;7.15;66.92;96643.00;2224283;26;20577;-67
2024/04/21 13:33:04;;;;;;;3.90;1.13;;;;;;;7.26;67.73;96640.09;2216481;26;20240;-67
2024/04/21 13:34:06;;;;;;;9.23;1.23;;;;;;;7.24;67.99;96648.78;2210109;26;20286;-67
2024/04/21 13:35:07;;;;;;;9.63;1.83;;;;;;;6.85;67.68;96648.22;2211614;26;20428;-67
2024/04/21 13:36:09;;;;;;;3.85;1.33;;;;;;;7.03;69.64;96653.75;2210963;26;20259;-66
2024/04/21 13:37:20;;;;;;;3.45;1.20;;;;;;;6.53;68.13;96637.03;2231237;26;20867;-67
2024/04/21 13:38:22;;;;;;;2.97;1.08;;;;;;;6.76;69.69;96651.09;2221626;26;20223;-67
2024/04/21 13:39:23;;;;;;;1.90;0.90;;;;;;;6.81;68.66;96645.78;2221115;26;21055;-67
2024/04/21 13:40:25;;;;;;;8.02;1.60;;;;;;;6.40;69.83;96647.81;2217224;26;20259;-67
2024/04/21 13:41:26;;;;;;;5.03;1.08;;;;;;;6.54;69.68;96649.13;2221173;26;20214;-67
2024/04/21 13:42:33;;;;;;;2.70;1.00;;;;;;;6.48;68.76;96651.88;2216489;26;20363;-67
2024/04/21 13:43:34;;;;;;;4.68;1.00;;;;;;;6.73;70.75;96655.53;2216930;26;20214;-67
2024/04/21 13:44:36;;;;;;;2.58;1.10;;;;;;;6.72;70.01;96646.03;2217093;26;20219;-67
2024/04/21 13:45:38;;;;;;;4.25;1.20;;;;;;;6.60;68.86;96647.25;2221011;26;20248;-67
2024/04/21 13:46:39;;;;;;;3.58;0.90;;;;;;;6.69;69.76;96652.16;2215900;26;20335;-66
2024/04/21 13:47:41;;;;;;;4.25;1.10;;;;;;;6.67;68.89;96657.41;2214781;26;20259;-68
2024/04/21 13:48:42;;;;;;;4.80;0.98;;;;;;;6.83;68.46;96654.34;2221343;26;20708;-68
2024/04/21 13:49:44;;;;;;;6.40;1.48;;;;;;;6.75;67.83;96640.78;2218884;26;20666;-67
2024/04/21 13:50:46;;;;;;;2.72;1.30;;;;;;;6.83;68.45;96652.63;2215124;26;20222;-67
2024/04/21 13:51:47;;;;;;;2.40;1.20;;;;;;;6.60;67.70;96658.50;2219055;26;20212;-68
2024/04/21 13:52:49;;;;;;;2.78;1.30;;;;;;;6.73;67.96;96645.13;2216820;26;20231;-67
2024/04/21 13:53:51;;;;;;;5.05;1.17;;;;;;;6.74;67.86;96649.44;2216949;26;20211;-67
2024/04/21 13:54:52;;;;;;;8.52;1.70;;;;;;;6.85;68.24;96650.81;2218157;26;20604;-67
2024/04/21 13:55:54;;;;;;;2.95;1.10;;;;;;;7.01;67.15;96652.97;2215695;26;20724;-66
2024/04/21 13:56:56;;;;;;;3.17;0.98;;;;;;;7.11;66.41;96656.13;2219372;26;20748;-67
2024/04/21 13:57:58;;;;;;;6.57;1.15;;;;;;;7.76;67.05;96649.72;2218669;26;20299;-67
2024/04/21 13:58:59;;;;;;;3.55;0.70;;;;;;;8.48;65.28;96648.13;2222965;26;20211;-67
2024/04/21 14:00:01;;;;;;;3.20;0.90;;;;;;;8.94;61.52;96638.63;2217681;26;20216;-67
2024/04/21 14:01:03;;;;;;;2.70;0.82;;;;;;;9.37;61.49;96638.72;2215783;26;20337;-67
2024/04/21 14:02:06;;;;;;;3.55;0.98;;;;;;;9.89;58.19;96643.56;2215851;26;20224;-68
2024/04/21 14:03:08;;;;;;;4.28;1.10;;;;;;;10.16;57.53;96643.28;2216273;26;20553;-65
2024/04/21 14:04:10;;;;;;;1.90;0.80;;;;;;;9.92;59.69;96642.56;2217932;26;20215;-65
2024/04/21 14:05:12;;;;;;;2.05;0.80;;;;;;;9.03;60.02;96644.38;2216904;26;20294;-68
2024/04/21 14:06:14;;;;;;;3.60;1.10;;;;;;;8.44;61.81;96656.94;2215822;26;20267;-67
2024/04/21 14:07:28;;;;;;;2.10;0.95;;;;;;;7.93;64.62;96659.53;2215056;26;20220;-67
2024/04/21 14:08:29;;;;;;;3.80;1.05;;;;;;;7.92;64.71;96655.28;2219130;26;20216;-67
2024/04/21 14:09:31;;;;;;;3.45;1.30;;;;;;;7.97;64.11;96657.69;2217201;26;20255;-67
2024/04/21 14:10:33;;;;;;;2.65;0.88;;;;;;;7.81;64.78;96665.19;2217428;26;20289;-68
2024/04/21 14:11:35;;;;;;;3.35;0.80;;;;;;;7.50;64.80;96648.84;2215026;26;20266;-67
2024/04/21 14:12:36;;;;;;;2.85;1.00;;;;;;;7.76;65.68;96654.94;2216646;26;20228;-67